Time;durP1;ratioP1;P1;durP2;ratioP2;P2;SDS_P1;SDS_P2;PMS_P1;PMS_P2;Temp;Humidity;BMP_temperature;BMP_pressure;BME280_temperature;BME280_humidity;BME280_pressure;Samples;Min_cycle;Max_cycle;Signal;HPM_P1;HPM_P2
2022/04/08 00:00:27;;;;;;;10.38;4.07;;;;;;;16.57;48.32;99815.91;5044057;28;20047;-57
2022/04/08 00:02:53;;;;;;;10.57;4.50;;;;;;;16.57;48.79;99807.88;5046876;28;20127;-57
2022/04/08 00:05:20;;;;;;;8.52;3.95;;;;;;;16.56;48.04;99824.91;5047465;28;20532;-57
2022/04/08 00:07:46;;;;;;;8.20;3.35;;;;;;;16.56;47.85;99821.41;5044084;28;20059;-57
2022/04/08 00:10:13;;;;;;;10.25;4.22;;;;;;;16.56;48.71;99818.72;5044639;28;20324;-57
2022/04/08 00:12:40;;;;;;;10.35;3.95;;;;;;;16.54;48.71;99824.25;5042789;28;20114;-57
2022/04/08 00:15:07;;;;;;;10.40;3.78;;;;;;;16.55;48.48;99823.25;5044335;28;20532;-57
2022/04/08 00:17:33;;;;;;;11.00;3.83;;;;;;;16.53;48.38;99826.09;5048202;28;20552;-57
2022/04/08 00:20:00;;;;;;;9.30;3.78;;;;;;;16.53;48.76;99839.47;5049513;28;20045;-57
2022/04/08 00:22:27;;;;;;;8.98;3.83;;;;;;;16.51;48.93;99836.13;5049017;28;20159;-56
2022/04/08 00:24:54;;;;;;;8.15;3.70;;;;;;;16.51;47.96;99840.63;5048669;28;20132;-57
2022/04/08 00:27:20;;;;;;;6.90;3.20;;;;;;;16.49;48.68;99843.50;5047828;28;20148;-57
2022/04/08 00:29:47;;;;;;;8.95;3.47;;;;;;;16.49;48.58;99843.50;5050169;28;20063;-56
2022/04/08 00:32:13;;;;;;;7.43;3.45;;;;;;;16.48;48.71;99854.34;5046999;28;20049;-56
2022/04/08 00:34:40;;;;;;;7.28;2.97;;;;;;;16.47;48.05;99848.16;5049815;28;20044;-57
2022/04/08 00:37:07;;;;;;;8.75;2.92;;;;;;;16.46;48.52;99849.16;5048687;28;20136;-57
2022/04/08 00:39:33;;;;;;;8.50;2.88;;;;;;;16.46;48.45;99848.34;5048681;28;20055;-56
2022/04/08 00:42:00;;;;;;;7.90;3.63;;;;;;;16.47;48.39;99858.03;5048733;28;20145;-58
2022/04/08 00:44:29;;;;;;;7.80;3.08;;;;;;;16.44;48.30;99853.88;5046102;28;20040;-57
2022/04/08 00:46:55;;;;;;;7.72;3.35;;;;;;;16.44;48.36;99869.91;5047050;28;20053;-57
2022/04/08 00:49:22;;;;;;;5.20;2.63;;;;;;;16.44;49.04;99874.41;5051223;28;20036;-57
2022/04/08 00:51:50;;;;;;;7.40;2.40;;;;;;;16.42;49.13;99871.06;5048192;28;20297;-58
2022/04/08 00:54:19;;;;;;;6.20;2.30;;;;;;;16.41;48.69;99877.44;5046829;28;20123;-58
2022/04/08 00:56:45;;;;;;;9.95;2.65;;;;;;;16.41;48.34;99869.41;5048450;28;20080;-57
2022/04/08 00:59:12;;;;;;;6.15;2.45;;;;;;;16.39;48.84;99876.75;5048009;28;20111;-58
2022/04/08 01:01:39;;;;;;;5.22;2.05;;;;;;;16.40;48.88;99886.44;5048514;28;20055;-57
2022/04/08 01:04:07;;;;;;;6.75;2.58;;;;;;;16.37;48.96;99879.59;5050577;28;20041;-56
2022/04/08 01:06:34;;;;;;;4.53;2.05;;;;;;;16.37;48.86;99894.81;5047489;28;20174;-56
2022/04/08 01:09:01;;;;;;;8.68;2.75;;;;;;;16.35;49.04;99896.78;5049421;28;20048;-56
2022/04/08 01:11:27;;;;;;;7.43;2.70;;;;;;;16.33;48.76;99902.31;5050772;28;20139;-57
2022/04/08 01:13:54;;;;;;;6.25;2.17;;;;;;;16.34;49.39;99905.81;5045832;28;20431;-57
2022/04/08 01:16:20;;;;;;;7.47;2.80;;;;;;;16.33;48.25;99914.84;5046352;28;20059;-56
2022/04/08 01:18:47;;;;;;;6.10;2.35;;;;;;;16.31;48.52;99917.69;5048190;28;20045;-55
2022/04/08 01:21:14;;;;;;;5.20;2.17;;;;;;;16.28;48.78;99916.19;5047565;28;20045;-57
2022/04/08 01:23:46;;;;;;;5.97;2.35;;;;;;;16.29;49.21;99914.34;5048859;28;20091;-56
2022/04/08 01:26:13;;;;;;;5.72;2.13;;;;;;;16.28;49.45;99916.19;5049939;28;20132;-58
2022/04/08 01:28:39;;;;;;;5.78;2.28;;;;;;;16.28;49.01;99912.66;5048779;28;20258;-56
2022/04/08 01:31:06;;;;;;;5.82;1.98;;;;;;;16.27;48.59;99921.69;5046132;28;20049;-56
2022/04/08 01:33:33;;;;;;;6.55;2.13;;;;;;;16.26;48.39;99923.53;5047467;28;20048;-56
2022/04/08 01:35:59;;;;;;;9.20;2.60;;;;;;;16.25;49.33;99916.50;5047606;28;20041;-57
2022/04/08 01:38:26;;;;;;;5.85;2.47;;;;;;;16.25;48.65;99918.34;5047939;28;20047;-57
2022/04/08 01:40:52;;;;;;;8.30;2.92;;;;;;;16.23;48.77;99915.81;5046384;28;20048;-56
2022/04/08 01:43:19;;;;;;;5.65;2.25;;;;;;;16.23;49.32;99926.53;5045698;28;20049;-56
2022/04/08 01:45:45;;;;;;;7.65;2.10;;;;;;;16.22;49.53;99922.19;5046771;28;20132;-57
2022/04/08 01:48:12;;;;;;;4.45;1.73;;;;;;;16.23;48.64;99929.19;5048607;28;20354;-57
2022/04/08 01:50:39;;;;;;;5.20;2.22;;;;;;;16.21;48.75;99912.50;5046237;28;20045;-56
2022/04/08 01:53:05;;;;;;;7.75;2.50;;;;;;;16.20;49.38;99926.88;5045957;28;20044;-56
2022/04/08 01:55:32;;;;;;;4.90;1.92;;;;;;;16.20;49.35;99918.84;5046901;28;20134;-57
2022/04/08 01:57:59;;;;;;;5.85;1.90;;;;;;;16.19;49.24;99924.34;5047543;28;20052;-57
2022/04/08 02:00:25;;;;;;;5.20;2.08;;;;;;;16.19;48.98;99941.22;5044699;28;20044;-57
2022/04/08 02:02:52;;;;;;;5.53;2.15;;;;;;;16.18;48.91;99934.19;5046498;28;20172;-57
2022/04/08 02:05:19;;;;;;;5.32;2.08;;;;;;;16.18;48.53;99941.41;5048537;28;20132;-57
2022/04/08 02:07:45;;;;;;;5.57;1.70;;;;;;;16.17;48.98;99943.22;5045394;28;20051;-57
2022/04/08 02:10:12;;;;;;;3.83;1.80;;;;;;;16.18;49.63;99938.72;5044645;28;20045;-57
2022/04/08 02:12:38;;;;;;;4.43;2.10;;;;;;;16.18;49.31;99954.75;5031574;28;20071;-57
2022/04/08 02:15:06;;;;;;;4.68;2.05;;;;;;;16.18;48.82;99971.63;5029515;28;20123;-57
2022/04/08 02:17:32;;;;;;;6.43;1.65;;;;;;;16.19;48.67;99972.47;5029042;28;20048;-57
2022/04/08 02:19:59;;;;;;;4.45;1.73;;;;;;;16.19;49.72;99978.66;5029226;28;20046;-57
2022/04/08 02:22:29;;;;;;;7.13;2.20;;;;;;;16.18;48.70;99976.97;5030162;28;20037;-57
2022/04/08 02:24:56;;;;;;;7.78;1.77;;;;;;;16.16;49.02;99981.66;5030551;28;20041;-57
2022/04/08 02:27:23;;;;;;;5.15;1.60;;;;;;;16.16;48.68;99981.66;5028381;28;20050;-57
2022/04/08 02:29:50;;;;;;;4.63;1.67;;;;;;;16.15;49.35;99961.25;5028484;28;20826;-57
2022/04/08 02:32:16;;;;;;;5.15;1.63;;;;;;;16.15;49.27;99963.09;5027667;28;20080;-56
2022/04/08 02:34:43;;;;;;;4.00;1.80;;;;;;;16.14;48.94;99951.56;5030739;28;20128;-56
2022/04/08 02:37:10;;;;;;;4.53;1.80;;;;;;;16.13;48.43;99949.06;5030439;28;20329;-57
2022/04/08 02:39:36;;;;;;;3.15;1.40;;;;;;;16.11;49.26;99954.56;5028061;28;20305;-57
2022/04/08 02:42:03;;;;;;;6.70;1.63;;;;;;;16.12;48.73;99945.56;5027955;28;20183;-57
2022/04/08 02:44:30;;;;;;;4.22;1.55;;;;;;;16.16;48.50;99954.94;5030376;28;20045;-58
2022/04/08 02:46:58;;;;;;;5.90;1.67;;;;;;;16.23;48.99;99961.28;5030194;28;20061;-57
2022/04/08 02:49:25;;;;;;;4.78;1.70;;;;;;;16.30;49.04;99953.44;5029791;28;20381;-57
2022/04/08 02:51:52;;;;;;;4.97;1.70;;;;;;;16.38;49.25;99960.66;5028338;28;20052;-57
2022/04/08 02:54:18;;;;;;;3.95;1.45;;;;;;;16.44;48.14;99957.31;5025968;28;20049;-57
2022/04/08 02:56:45;;;;;;;4.90;1.42;;;;;;;16.50;48.80;99960.16;5027570;28;20045;-57
2022/04/08 02:59:12;;;;;;;4.80;1.48;;;;;;;16.57;48.53;99960.34;5032306;28;20041;-56
2022/04/08 03:01:38;;;;;;;5.18;2.10;;;;;;;16.63;48.45;99954.31;5029035;28;20127;-56
2022/04/08 03:04:08;;;;;;;3.15;1.30;;;;;;;16.70;47.94;99965.22;5028666;28;20080;-57
2022/04/08 03:06:35;;;;;;;3.75;1.42;;;;;;;16.76;47.74;99957.41;5026625;28;20149;-57
2022/04/08 03:09:03;;;;;;;4.85;1.40;;;;;;;16.83;48.11;99960.22;5028565;28;21797;-57
2022/04/08 03:11:29;;;;;;;3.10;1.10;;;;;;;16.91;47.82;99962.06;5038137;28;20051;-56
2022/04/08 03:14:00;;;;;;;2.53;1.50;;;;;;;16.96;48.20;99967.75;5043834;28;20382;-55
2022/04/08 03:16:26;;;;;;;4.70;1.73;;;;;;;17.03;48.21;99976.78;5046328;28;20136;-56
2022/04/08 03:18:53;;;;;;;5.40;1.40;;;;;;;17.08;47.46;99969.06;5045581;28;20451;-56
2022/04/08 03:21:19;;;;;;;12.43;1.55;;;;;;;17.13;48.16;99977.44;5043900;28;20059;-57
2022/04/08 03:23:47;;;;;;;3.40;1.00;;;;;;;17.17;47.62;99975.28;5042861;28;20051;-56
2022/04/08 03:26:15;;;;;;;4.68;1.40;;;;;;;17.18;47.32;99983.13;5045106;28;20085;-56
2022/04/08 03:28:42;;;;;;;2.72;1.20;;;;;;;17.20;47.63;99988.31;5047106;28;20056;-57
2022/04/08 03:31:12;;;;;;;2.72;0.98;;;;;;;17.20;47.35;99983.78;5046313;28;20053;-57
2022/04/08 03:33:39;;;;;;;5.72;1.30;;;;;;;17.18;47.48;99985.81;5045714;28;20371;-57
2022/04/08 03:36:06;;;;;;;3.60;1.23;;;;;;;17.17;47.41;99991.34;5045962;28;20063;-57
2022/04/08 03:38:32;;;;;;;3.60;1.30;;;;;;;17.14;47.65;99989.81;5044940;28;20139;-56
2022/04/08 03:40:59;;;;;;;3.85;1.20;;;;;;;17.11;47.91;100000.88;5045959;28;20037;-57
2022/04/08 03:43:27;;;;;;;2.85;1.23;;;;;;;17.08;47.70;99998.50;5042980;28;20623;-57
2022/04/08 03:45:54;;;;;;;2.08;0.80;;;;;;;17.07;47.95;100001.38;5045623;28;20512;-57
2022/04/08 03:48:20;;;;;;;1.95;1.25;;;;;;;17.03;47.86;100000.88;5046236;28;20036;-56
2022/04/08 03:50:47;;;;;;;5.15;1.58;;;;;;;17.00;47.75;99996.72;5046267;28;20110;-57
2022/04/08 03:53:13;;;;;;;3.45;1.20;;;;;;;17.00;47.23;99990.50;5047944;28;20033;-56
2022/04/08 03:55:40;;;;;;;2.72;1.20;;;;;;;17.01;47.77;99997.53;5049781;28;20412;-57
2022/04/08 03:58:09;;;;;;;3.92;1.38;;;;;;;17.04;47.52;99989.16;5047950;28;20041;-56
2022/04/08 04:00:37;;;;;;;4.90;1.17;;;;;;;17.08;47.51;99995.84;5050508;28;20047;-55
2022/04/08 04:03:03;;;;;;;2.45;1.02;;;;;;;17.13;47.65;99993.50;5049401;28;20064;-57
2022/04/08 04:05:34;;;;;;;3.25;1.15;;;;;;;17.17;47.45;99991.34;5050249;28;20179;-56
2022/04/08 04:08:01;;;;;;;2.72;0.90;;;;;;;17.21;47.44;99985.47;5048712;28;20051;-56
2022/04/08 04:10:27;;;;;;;3.58;1.20;;;;;;;17.25;47.91;99981.44;5048197;28;20049;-56
2022/04/08 04:12:54;;;;;;;4.10;1.10;;;;;;;17.30;47.75;99978.25;5048078;28;20041;-56
2022/04/08 04:15:21;;;;;;;5.70;1.38;;;;;;;17.34;47.50;99984.13;5047640;28;20045;-58
2022/04/08 04:17:47;;;;;;;4.20;1.38;;;;;;;17.36;47.67;99977.56;5049227;28;20079;-56
2022/04/08 04:20:13;;;;;;;4.20;1.27;;;;;;;17.37;47.09;99979.25;5048381;28;20041;-56
2022/04/08 04:22:40;;;;;;;1.90;1.02;;;;;;;17.38;47.50;99980.09;5048446;28;20045;-57
2022/04/08 04:25:07;;;;;;;4.30;1.27;;;;;;;17.38;47.97;99986.28;5047944;28;20059;-57
2022/04/08 04:27:34;;;;;;;1.83;0.80;;;;;;;17.36;47.20;99977.56;5048967;28;20079;-56
2022/04/08 04:30:00;;;;;;;2.75;0.88;;;;;;;17.35;47.20;99983.09;5048315;28;20045;-56
2022/04/08 04:32:26;;;;;;;2.85;1.27;;;;;;;17.29;47.09;99976.59;5047078;28;20048;-56
2022/04/08 04:34:53;;;;;;;1.90;0.90;;;;;;;17.27;46.84;99986.63;5049694;28;20037;-56
2022/04/08 04:37:20;;;;;;;4.50;1.48;;;;;;;17.23;47.40;99986.13;5048756;28;20052;-57
2022/04/08 04:39:46;;;;;;;3.10;0.90;;;;;;;17.20;47.14;99981.09;5047667;28;20443;-56
2022/04/08 04:42:13;;;;;;;4.63;1.55;;;;;;;17.16;47.15;99985.13;5047306;28;20067;-56
2022/04/08 04:44:39;;;;;;;4.10;1.23;;;;;;;17.14;47.34;99984.47;5045911;28;20049;-56
2022/04/08 04:47:07;;;;;;;2.85;1.10;;;;;;;17.11;46.89;99989.31;5049148;28;20053;-56
2022/04/08 04:49:33;;;;;;;4.38;1.52;;;;;;;17.06;47.44;99992.50;5046498;28;20679;-56
2022/04/08 04:52:00;;;;;;;2.90;1.00;;;;;;;17.02;47.38;99992.00;5047846;28;20048;-56
2022/04/08 04:54:26;;;;;;;3.65;1.27;;;;;;;16.98;47.68;99990.66;5047413;28;20051;-56
2022/04/08 04:56:53;;;;;;;3.58;1.08;;;;;;;16.95;48.05;99991.00;5049170;28;20571;-56
2022/04/08 04:59:19;;;;;;;4.13;0.98;;;;;;;16.91;47.33;99988.81;5045657;28;20051;-56
2022/04/08 05:01:46;;;;;;;3.13;1.20;;;;;;;16.88;47.27;99991.81;5049245;28;20045;-57
2022/04/08 05:04:13;;;;;;;4.53;1.77;;;;;;;16.86;47.60;99983.97;5042753;28;20053;-56
2022/04/08 05:06:40;;;;;;;1.60;0.80;;;;;;;16.83;48.17;99986.97;5049661;28;20040;-56
2022/04/08 05:09:06;;;;;;;3.63;1.33;;;;;;;16.80;47.79;99989.16;5049534;28;20049;-56
2022/04/08 05:11:33;;;;;;;4.10;1.10;;;;;;;16.78;47.95;99989.31;5048112;28;20049;-56
2022/04/08 05:14:00;;;;;;;5.30;1.40;;;;;;;16.76;47.86;99985.97;5048872;28;20051;-55
2022/04/08 05:16:27;;;;;;;2.85;1.30;;;;;;;16.72;47.30;99979.25;5046239;28;20049;-57
2022/04/08 05:18:54;;;;;;;4.45;1.70;;;;;;;16.69;47.36;99983.09;5048562;28;20053;-56
2022/04/08 05:21:21;;;;;;;2.80;1.30;;;;;;;16.67;47.91;99976.25;5049541;28;20368;-56
2022/04/08 05:23:48;;;;;;;2.95;1.60;;;;;;;16.64;47.23;99981.91;5050635;28;20041;-57
2022/04/08 05:26:15;;;;;;;3.80;1.48;;;;;;;16.62;47.53;99978.56;5047258;28;21849;-56
2022/04/08 05:28:42;;;;;;;4.65;2.00;;;;;;;16.60;47.25;99981.41;5047775;28;20052;-56
2022/04/08 05:31:08;;;;;;;4.82;1.80;;;;;;;16.58;47.15;99986.09;5050283;28;20361;-56
2022/04/08 05:33:35;;;;;;;4.05;1.73;;;;;;;16.56;47.39;99976.56;5047228;28;20037;-56
2022/04/08 05:36:01;;;;;;;3.55;1.55;;;;;;;16.53;47.21;99978.56;5051759;28;20136;-56
2022/04/08 05:38:28;;;;;;;4.05;1.63;;;;;;;16.52;46.97;99981.38;5049568;28;20037;-57
2022/04/08 05:40:55;;;;;;;4.20;1.92;;;;;;;16.49;47.50;99977.22;5048760;28;20083;-57
2022/04/08 05:43:21;;;;;;;4.35;1.75;;;;;;;16.49;46.94;99971.03;5050439;28;20376;-56
2022/04/08 05:45:48;;;;;;;3.65;1.55;;;;;;;16.47;47.24;99981.06;5049053;28;20428;-56
2022/04/08 05:48:14;;;;;;;3.72;1.90;;;;;;;16.47;47.67;99973.03;5045812;28;20124;-56
2022/04/08 05:50:41;;;;;;;3.20;1.48;;;;;;;16.44;47.27;99971.53;5047550;28;20048;-56
2022/04/08 05:53:07;;;;;;;5.45;2.00;;;;;;;16.43;47.25;99967.16;5042040;28;20057;-56
2022/04/08 05:55:58;;;;;;;4.13;1.95;;;;;;;16.44;47.06;99962.66;5046340;28;20504;-56
2022/04/08 05:58:24;;;;;;;5.40;1.88;;;;;;;16.42;47.65;99962.84;5049891;28;20041;-56
2022/04/08 06:00:51;;;;;;;4.80;1.95;;;;;;;16.41;47.49;99965.69;5048727;28;20266;-57
2022/04/08 06:03:18;;;;;;;6.32;2.17;;;;;;;16.41;47.60;99965.69;5048695;28;20053;-56
2022/04/08 06:05:44;;;;;;;4.95;2.25;;;;;;;16.40;47.27;99970.19;5051345;28;20115;-56
2022/04/08 06:08:11;;;;;;;5.30;2.03;;;;;;;16.40;47.19;99972.00;5045287;28;20091;-56
2022/04/08 06:10:38;;;;;;;7.55;2.88;;;;;;;16.41;47.28;99976.38;5050365;28;20045;-56
2022/04/08 06:13:04;;;;;;;4.05;2.60;;;;;;;16.42;47.71;99980.72;5047245;28;20053;-55
2022/04/08 06:15:31;;;;;;;6.80;3.03;;;;;;;16.39;47.85;99978.38;5050744;28;20098;-56
2022/04/08 06:17:58;;;;;;;7.97;3.30;;;;;;;16.38;47.81;99982.06;5048743;28;20043;-56
2022/04/08 06:20:25;;;;;;;6.53;3.03;;;;;;;16.35;47.66;99972.50;5047780;28;21493;-57
2022/04/08 06:22:53;;;;;;;7.32;3.63;;;;;;;16.35;47.29;99972.50;5047620;28;20068;-56
2022/04/08 06:25:22;;;;;;;9.80;4.03;;;;;;;16.35;47.09;99971.66;5050353;28;20075;-56
2022/04/08 06:28:03;;;;;;;7.93;3.53;;;;;;;16.34;47.83;99978.03;5048552;28;20495;-56
2022/04/08 06:30:34;;;;;;;6.78;3.03;;;;;;;16.35;47.74;99969.00;5049795;28;20081;-56
2022/04/08 06:33:03;;;;;;;8.40;3.60;;;;;;;16.34;47.85;99973.50;5044265;28;20073;-56
2022/04/08 06:35:29;;;;;;;6.20;3.38;;;;;;;16.34;47.25;99975.34;5047950;28;20402;-56
2022/04/08 06:38:03;;;;;;;6.72;3.40;;;;;;;16.35;47.13;99982.38;5051001;28;20059;-56
2022/04/08 06:40:31;;;;;;;6.28;3.50;;;;;;;16.35;47.96;99982.38;5050403;28;20425;-56
2022/04/08 06:43:00;;;;;;;7.18;4.03;;;;;;;16.36;46.94;99978.69;5050027;28;20132;-56
2022/04/08 06:45:28;;;;;;;8.90;4.03;;;;;;;16.36;47.25;99974.19;5047414;28;20040;-57
2022/04/08 06:47:54;;;;;;;8.35;4.00;;;;;;;16.38;47.48;99976.69;5050721;28;20367;-56
2022/04/08 06:50:21;;;;;;;7.05;4.13;;;;;;;16.40;46.88;99982.72;5050560;28;20151;-56
2022/04/08 06:52:48;;;;;;;11.93;4.63;;;;;;;16.43;46.96;99975.19;5047346;28;20120;-56
2022/04/08 06:55:14;;;;;;;11.45;5.32;;;;;;;16.45;46.94;99967.84;5050984;28;20090;-57
2022/04/08 06:57:42;;;;;;;10.23;5.03;;;;;;;16.50;47.10;99976.22;5050470;28;20448;-57
2022/04/08 07:00:11;;;;;;;10.38;4.88;;;;;;;16.51;47.17;99980.56;5048934;28;20102;-56
2022/04/08 07:02:38;;;;;;;11.38;4.85;;;;;;;16.54;47.36;99974.06;5047867;28;20113;-56
2022/04/08 07:05:06;;;;;;;12.88;5.00;;;;;;;16.53;47.13;99977.75;5044901;28;20336;-56
2022/04/08 07:07:35;;;;;;;10.52;4.72;;;;;;;16.54;46.92;99980.25;5041472;28;20446;-56
2022/04/08 07:10:02;;;;;;;9.05;4.70;;;;;;;16.55;46.53;99975.72;5045347;28;20435;-57
2022/04/08 07:12:28;;;;;;;8.90;4.68;;;;;;;16.57;46.72;99981.75;5045579;28;20044;-57
2022/04/08 07:14:55;;;;;;;11.32;4.90;;;;;;;16.56;46.97;99980.06;5048265;28;20049;-56
2022/04/08 07:17:40;;;;;;;10.15;4.40;;;;;;;16.57;46.36;99975.56;5044736;28;20049;-57
2022/04/08 07:20:14;;;;;;;9.30;4.82;;;;;;;16.57;47.01;99973.72;5043935;28;20052;-56
2022/04/08 07:22:43;;;;;;;9.27;4.55;;;;;;;16.60;47.24;99975.22;5042418;28;20119;-55
2022/04/08 07:25:10;;;;;;;9.90;4.80;;;;;;;16.61;46.98;99969.72;5041817;28;20045;-56
2022/04/08 07:27:47;;;;;;;9.95;5.07;;;;;;;16.62;46.69;99967.88;5045184;28;20052;-57
2022/04/08 07:30:15;;;;;;;9.38;4.97;;;;;;;16.63;47.38;99967.69;5044669;28;20047;-56
2022/04/08 07:32:42;;;;;;;8.95;5.03;;;;;;;16.65;47.00;99965.72;5043971;28;20047;-57
2022/04/08 07:35:10;;;;;;;12.50;6.03;;;;;;;16.67;46.57;99966.38;5049544;28;20127;-57
2022/04/08 07:37:37;;;;;;;11.75;5.97;;;;;;;16.68;46.74;99964.53;5048072;28;20403;-56
2022/04/08 07:40:09;;;;;;;13.15;6.88;;;;;;;16.70;46.75;99966.03;5049785;28;20099;-57
2022/04/08 07:42:36;;;;;;;11.43;6.47;;;;;;;16.71;47.11;99966.88;5046753;28;20099;-57
2022/04/08 07:45:04;;;;;;;12.68;7.05;;;;;;;16.73;47.02;99960.41;5047127;28;20171;-56
2022/04/08 07:47:30;;;;;;;13.70;7.35;;;;;;;16.73;46.71;99944.34;5049961;28;20123;-57
2022/04/08 07:50:01;;;;;;;13.15;7.10;;;;;;;16.75;46.84;99952.19;5049267;28;20091;-57
2022/04/08 07:52:27;;;;;;;14.13;7.22;;;;;;;16.76;46.54;99954.72;5043394;28;20051;-56
2022/04/08 07:54:55;;;;;;;12.20;6.38;;;;;;;16.77;46.66;99950.19;5042657;28;20053;-57
2022/04/08 07:57:22;;;;;;;14.52;7.63;;;;;;;16.80;46.31;99939.13;5046970;28;20124;-57
2022/04/08 07:59:50;;;;;;;14.88;7.18;;;;;;;16.81;46.81;99948.03;5048259;28;20141;-56
2022/04/08 08:02:16;;;;;;;13.77;7.40;;;;;;;16.83;46.30;99946.00;5047318;28;20041;-57
2022/04/08 08:04:47;;;;;;;14.35;7.90;;;;;;;16.84;47.00;99951.19;5052914;28;20049;-57
2022/04/08 08:07:14;;;;;;;14.38;7.93;;;;;;;16.86;46.63;99948.34;5049449;28;20076;-57
2022/04/08 08:09:41;;;;;;;13.57;7.50;;;;;;;16.87;46.50;99948.19;5026742;28;20152;-58
2022/04/08 08:12:20;;;;;;;15.52;7.97;;;;;;;16.90;46.22;99949.69;5042287;28;20628;-58
2022/04/08 08:14:47;;;;;;;18.67;8.13;;;;;;;16.91;46.50;99946.84;5040144;28;20318;-57
2022/04/08 08:17:13;;;;;;;18.08;8.40;;;;;;;16.93;46.39;99950.19;5046903;28;20060;-57
2022/04/08 08:19:40;;;;;;;16.08;8.80;;;;;;;16.96;46.29;99952.50;5039059;28;20047;-59
2022/04/08 08:22:07;;;;;;;14.02;7.90;;;;;;;16.98;46.47;99952.34;5049253;28;20040;-57
2022/04/08 08:24:33;;;;;;;17.13;8.38;;;;;;;16.99;46.18;99952.19;5047994;28;20037;-56
2022/04/08 08:27:00;;;;;;;19.65;10.05;;;;;;;17.00;46.66;99944.97;5044047;28;20072;-57
2022/04/08 08:29:26;;;;;;;20.85;10.05;;;;;;;17.03;46.64;99939.28;5044984;28;20057;-56
2022/04/08 08:31:53;;;;;;;23.10;10.55;;;;;;;17.04;46.66;99935.59;5042891;28;20047;-57
2022/04/08 08:34:20;;;;;;;23.58;12.45;;;;;;;17.07;46.70;99932.59;5044387;28;20348;-57
2022/04/08 08:36:47;;;;;;;26.35;13.00;;;;;;;17.09;46.78;99929.78;5046099;28;20072;-56
2022/04/08 08:39:14;;;;;;;26.65;14.23;;;;;;;17.11;46.55;99925.06;5048983;28;20068;-57
2022/04/08 08:41:41;;;;;;;25.30;13.93;;;;;;;17.12;46.25;99922.22;5050855;28;20041;-57
2022/04/08 08:44:08;;;;;;;25.35;13.77;;;;;;;17.15;47.04;99913.84;5052127;28;20083;-57
2022/04/08 08:46:35;;;;;;;25.00;13.30;;;;;;;17.17;46.61;99914.53;5047731;28;20077;-57
2022/04/08 08:49:03;;;;;;;26.70;13.63;;;;;;;17.20;46.69;99919.50;5052563;28;20048;-57
2022/04/08 08:51:35;;;;;;;24.42;13.27;;;;;;;17.23;46.35;99918.34;5052163;28;20511;-56
2022/04/08 08:54:02;;;;;;;25.13;12.05;;;;;;;17.26;46.40;99926.88;5049737;28;20135;-57
2022/04/08 08:56:29;;;;;;;21.58;11.88;;;;;;;17.28;46.30;99924.00;5049625;28;20140;-57
2022/04/08 08:58:55;;;;;;;20.63;11.05;;;;;;;17.32;46.58;99924.50;5049189;28;20072;-57
2022/04/08 09:01:22;;;;;;;19.60;10.98;;;;;;;17.33;46.87;99926.22;5050261;28;20036;-57
2022/04/08 09:03:49;;;;;;;23.23;11.55;;;;;;;17.33;46.03;99916.31;5049388;28;20045;-55
2022/04/08 09:06:17;;;;;;;19.67;11.20;;;;;;;17.34;46.46;99907.28;5048099;28;20072;-56
2022/04/08 09:08:58;;;;;;;22.65;11.52;;;;;;;17.36;46.43;99909.78;5050258;28;20049;-56
2022/04/08 09:11:26;;;;;;;21.48;10.95;;;;;;;17.37;46.08;99914.97;5049878;28;20065;-56
2022/04/08 09:14:01;;;;;;;18.23;10.15;;;;;;;17.37;46.29;99898.91;5050294;28;20314;-56
2022/04/08 09:16:29;;;;;;;18.48;10.23;;;;;;;17.39;46.15;99891.50;5045096;28;20056;-56
2022/04/08 09:18:56;;;;;;;19.10;10.15;;;;;;;17.41;46.30;99910.94;5044555;28;20095;-57
2022/04/08 09:21:24;;;;;;;21.50;10.48;;;;;;;17.41;46.37;99910.13;5049018;28;20127;-57
2022/04/08 09:23:51;;;;;;;20.52;11.18;;;;;;;17.41;46.62;99908.25;5051243;28;20137;-56
2022/04/08 09:26:19;;;;;;;29.38;15.70;;;;;;;17.43;46.31;99916.13;5051255;28;20226;-56
2022/04/08 09:28:46;;;;;;;37.00;19.20;;;;;;;17.43;45.91;99927.66;5051051;28;20057;-56
2022/04/08 09:31:21;;;;;;;29.20;15.55;;;;;;;17.43;46.01;99908.91;5026882;28;20052;-57
2022/04/08 09:33:49;;;;;;;30.48;17.13;;;;;;;17.44;45.69;99901.72;5046477;28;20064;-56
2022/04/08 09:36:32;;;;;;;30.58;18.15;;;;;;;17.44;46.10;99904.38;5046629;28;20052;-55
2022/04/08 09:38:59;;;;;;;30.42;16.42;;;;;;;17.44;46.08;99893.66;5051519;28;20055;-56
2022/04/08 09:41:42;;;;;;;31.40;16.58;;;;;;;17.43;46.55;99900.88;5049327;28;20496;-55
2022/04/08 09:44:14;;;;;;;26.45;14.98;;;;;;;17.45;46.03;99901.56;5049686;28;20128;-55
2022/04/08 09:46:41;;;;;;;36.10;18.77;;;;;;;17.44;46.28;99899.84;5044253;28;20084;-56
2022/04/08 09:49:08;;;;;;;33.92;18.77;;;;;;;17.45;45.93;99890.84;5047933;28;20091;-56
2022/04/08 09:51:39;;;;;;;32.70;18.58;;;;;;;17.45;46.26;99890.84;5048292;28;20107;-56
2022/04/08 09:54:08;;;;;;;33.45;17.33;;;;;;;17.46;46.90;99889.81;5047871;28;20301;-57
2022/04/08 09:56:36;;;;;;;33.33;17.02;;;;;;;17.47;46.80;99898.69;5049249;28;20098;-56
2022/04/08 09:59:21;;;;;;;37.22;16.52;;;;;;;17.48;47.42;99900.34;5048542;28;20053;-56
2022/04/08 10:02:07;;;;;;;35.70;15.95;;;;;;;17.50;47.73;99896.50;5046647;28;20368;-56
2022/04/08 10:04:35;;;;;;;34.33;16.35;;;;;;;17.51;48.48;99892.81;5051938;28;20272;-56
2022/04/08 10:07:02;;;;;;;41.80;17.95;;;;;;;17.52;48.73;99904.34;5049729;28;20040;-56
2022/04/08 10:09:33;;;;;;;40.35;17.85;;;;;;;17.55;48.97;99911.22;5046358;28;20072;-56
2022/04/08 10:12:09;;;;;;;46.55;19.67;;;;;;;17.57;49.02;99904.69;5046292;28;20059;-57
2022/04/08 10:14:48;;;;;;;50.95;20.05;;;;;;;17.58;49.49;99914.41;5046285;28;20123;-57
2022/04/08 10:17:16;;;;;;;43.92;19.23;;;;;;;17.61;49.95;99908.69;5049428;28;20045;-56
2022/04/08 10:19:42;;;;;;;45.95;20.25;;;;;;;17.64;49.76;99915.53;5048903;28;20157;-57
2022/04/08 10:22:18;;;;;;;46.03;19.75;;;;;;;17.65;49.75;99920.75;5045344;28;20086;-57
2022/04/08 10:24:55;;;;;;;42.97;19.35;;;;;;;17.67;49.12;99916.03;5049325;28;20048;-57
2022/04/08 10:27:34;;;;;;;36.35;18.67;;;;;;;17.70;49.71;99922.88;5047497;28;20053;-56
2022/04/08 10:30:23;;;;;;;38.05;16.88;;;;;;;17.71;49.11;99916.50;5049980;28;20124;-57
2022/04/08 10:33:03;;;;;;;44.25;17.80;;;;;;;17.71;49.03;99917.34;5047603;28;20044;-56
2022/04/08 10:35:30;;;;;;;33.95;16.85;;;;;;;17.73;49.24;99914.50;5049697;28;20127;-57
2022/04/08 10:38:03;;;;;;;34.47;15.48;;;;;;;17.72;48.52;99910.13;5050758;28;20053;-56
2022/04/08 10:40:33;;;;;;;38.85;15.52;;;;;;;17.73;48.32;99915.34;5047228;28;20076;-56
2022/04/08 10:43:03;;;;;;;31.98;13.93;;;;;;;17.74;48.56;99908.13;5050362;28;20132;-56
2022/04/08 10:45:30;;;;;;;32.20;14.18;;;;;;;17.73;48.23;99893.91;5048652;28;20131;-57
2022/04/08 10:48:09;;;;;;;32.78;14.18;;;;;;;17.73;48.49;99899.25;5047834;28;20412;-56
2022/04/08 10:50:38;;;;;;;27.63;14.18;;;;;;;17.74;48.41;99911.69;5049756;28;20047;-56
2022/04/08 10:53:13;;;;;;;27.13;13.65;;;;;;;17.75;47.94;99917.88;5044514;28;20520;-57
2022/04/08 10:55:46;;;;;;;28.48;12.82;;;;;;;17.74;47.92;99917.03;5047623;28;20076;-56
2022/04/08 10:58:15;;;;;;;24.75;12.18;;;;;;;17.75;47.93;99918.69;5052306;28;20301;-56
2022/04/08 11:00:42;;;;;;;26.05;12.68;;;;;;;17.76;47.82;99924.88;5047889;28;20144;-57
2022/04/08 11:03:10;;;;;;;28.27;12.45;;;;;;;17.75;47.95;99917.88;5047547;28;20053;-56
2022/04/08 11:05:38;;;;;;;24.55;11.82;;;;;;;17.76;47.57;99917.69;5048366;28;20155;-56
2022/04/08 11:08:06;;;;;;;22.15;11.20;;;;;;;17.75;47.38;99901.78;5046105;28;20083;-57
2022/04/08 11:10:33;;;;;;;23.95;11.60;;;;;;;17.75;47.53;99894.56;5045281;28;20037;-55
2022/04/08 11:13:00;;;;;;;23.83;10.68;;;;;;;17.76;47.53;99898.91;5047043;28;20128;-56
2022/04/08 11:15:31;;;;;;;23.65;10.93;;;;;;;17.76;47.15;99893.56;5045355;28;20033;-56
2022/04/08 11:18:00;;;;;;;19.17;9.75;;;;;;;17.76;47.46;99892.72;5047518;28;20373;-56
2022/04/08 11:20:28;;;;;;;19.08;9.85;;;;;;;17.76;47.65;99887.38;5048870;28;20120;-56
2022/04/08 11:22:55;;;;;;;22.08;9.13;;;;;;;17.76;47.35;99901.59;5048249;28;20041;-56
2022/04/08 11:25:30;;;;;;;18.65;9.25;;;;;;;17.76;47.18;99898.91;5046537;28;20127;-55
2022/04/08 11:28:00;;;;;;;15.75;8.85;;;;;;;17.77;47.04;99902.47;5049826;28;20133;-56
2022/04/08 11:30:27;;;;;;;18.90;10.02;;;;;;;17.77;47.12;99897.09;5046023;28;20157;-57
2022/04/08 11:32:54;;;;;;;16.00;9.45;;;;;;;17.78;47.12;99892.56;5046218;28;20108;-56